LiveATC.Net - Listen to live air traffic control over the Internet!


ICAO: USTR  IATA: TJM   Airport: Roshchino International Airport
City: Tyumen
Country: Russia   Continent: Asia
USTR METAR Weather: USTR 181930Z 28004MPS CAVOK M09/M11 Q1022 R30/390050 NOSIG RMK QFE757/1010
USTR Flight Activity (FlightAware)

USTR Gnd/Twr/App
Feed Status: UP   Listeners: 0
Listen in your browser - HTML5 player (in browser, HTML5)
Listen in your browser - requires Flash (in browser, requires Flash)
Click here to listen with your own player (launches your MP3 player)
USTR Gnd/Twr/App Audio Archives
FacilityFrequency
Tyumen Approach126.100
Tyumen Control132.600
Tyumen Control133.600
Tyumen Info (Regional)133.400
Tyumen Start118.200
Tyumen Transit131.800

NOTICE

Unauthorized use prohibited. See LiveATC.net Terms of Service


Find LiveATC Audio Streams


Airport/ARTCC Code

Frequency Search
(e.g., 124.400, 128.75)
Site-wide search
 


Browse LiveATC Feeds
Top 50 LiveATC Feeds
Bad Weather Areas

LiveATC FAQ
Offer a LiveATC Feed
Contact LiveATC.net
Press Inquiries

LiveATC on iPhone
LiveATC on Android

Windows Phone
Windows 8/10

LiveATC Mobile
(Mobile browser)

ATC Audio Archives
Interesting Recordings

LiveATC Forums


Home Page
About LiveATC.net
Make a Donation
Terms of Use
Privacy Policy

Canadian Air Freqs

AIRMETs/SIGMETs

FAA Airport Status
Nat'l Airspace Status
Arrival Demand Charts


Server Software By:
Icecast.org
Liquidsoap